EDW22B EGLL-LSZH
Flight info
| Callsign | EDW22B |
|---|---|
| Flight time | 1h 11m |
| Altitude | 29000 |
| Route | DET L6 DVR UL9 KONAN DCT KOK DCT SISGA DCT RITAX DCT KRH M150 LAMGO/N0480F270 T721 SUL/N0465F250 T721 RILAX |
| Aircraft | A359/H-SDE2E3GHIJ3J4J5LM1ORWXY/LB1D1 |
Departure
| Time | 2026-05-05 15:43 |
|---|---|
| Airport | London Heathrow Airport (EGLL) |
Arrival
| Time | 2026-05-05 16:54 |
|---|---|
| Airport | Zürich Airport (LSZH) |
| Time | Latitude | Longitude | Altitude | Speed | Heading |
|---|---|---|---|---|---|
| 2026-05-05 15:12 | 51.47409 | -0.44844 | 92 ft | 0 kts | 179° |
| 2026-05-05 15:26 | 51.47424 | -0.44845 | 95 ft | 2 kts | 180° |
| 2026-05-05 15:26 | 51.47441 | -0.44845 | 92 ft | 2 kts | 179° |
| 2026-05-05 15:26 | 51.47457 | -0.44846 | 93 ft | 2 kts | 178° |
| 2026-05-05 15:26 | 51.47474 | -0.44846 | 93 ft | 2 kts | 179° |
| 2026-05-05 15:27 | 51.47490 | -0.44843 | 93 ft | 2 kts | 214° |
| 2026-05-05 15:27 | 51.47501 | -0.44824 | 94 ft | 2 kts | 245° |
| 2026-05-05 15:27 | 51.47506 | -0.44800 | 94 ft | 2 kts | 262° |
| 2026-05-05 15:27 | 51.47507 | -0.44792 | 94 ft | 0 kts | 265° |
| 2026-05-05 15:31 | 51.47507 | -0.44796 | 94 ft | 1 kts | 266° |
| 2026-05-05 15:32 | 51.47504 | -0.44875 | 104 ft | 16 kts | 268° |
| 2026-05-05 15:32 | 51.47504 | -0.45062 | 98 ft | 18 kts | 272° |
| 2026-05-05 15:32 | 51.47502 | -0.45180 | 96 ft | 11 kts | 264° |
| 2026-05-05 15:32 | 51.47499 | -0.45314 | 94 ft | 1 kts | 276° |
| 2026-05-05 15:34 | 51.47506 | -0.45477 | 97 ft | 32 kts | 270° |
| 2026-05-05 15:35 | 51.47515 | -0.45855 | 92 ft | 35 kts | 270° |
| 2026-05-05 15:35 | 51.47513 | -0.46249 | 96 ft | 36 kts | 269° |
| 2026-05-05 15:35 | 51.47513 | -0.46547 | 99 ft | 21 kts | 270° |
| 2026-05-05 15:35 | 51.47497 | -0.46783 | 96 ft | 22 kts | 267° |
| 2026-05-05 15:36 | 51.47493 | -0.47034 | 95 ft | 23 kts | 269° |
| 2026-05-05 15:36 | 51.47489 | -0.47305 | 95 ft | 26 kts | 272° |
| 2026-05-05 15:36 | 51.47491 | -0.47587 | 95 ft | 21 kts | 270° |
| 2026-05-05 15:36 | 51.47490 | -0.47842 | 93 ft | 24 kts | 270° |
| 2026-05-05 15:37 | 51.47492 | -0.48121 | 95 ft | 26 kts | 270° |
| 2026-05-05 15:37 | 51.47487 | -0.48321 | 95 ft | 18 kts | 269° |
| 2026-05-05 15:37 | 51.47460 | -0.48456 | 95 ft | 7 kts | 217° |
| 2026-05-05 15:37 | 51.47413 | -0.48472 | 96 ft | 8 kts | 181° |
| 2026-05-05 15:38 | 51.47328 | -0.48474 | 94 ft | 18 kts | 181° |
| 2026-05-05 15:38 | 51.47242 | -0.48476 | 93 ft | 19 kts | 181° |
| 2026-05-05 15:38 | 51.47097 | -0.48474 | 94 ft | 11 kts | 179° |
| 2026-05-05 15:38 | 51.47004 | -0.48470 | 96 ft | 16 kts | 178° |
| 2026-05-05 15:39 | 51.46927 | -0.48467 | 95 ft | 18 kts | 179° |
| 2026-05-05 15:39 | 51.46890 | -0.48467 | 94 ft | 0 kts | 179° |
| 2026-05-05 15:39 | 51.46888 | -0.48467 | 94 ft | 2 kts | 179° |
| 2026-05-05 15:39 | 51.46826 | -0.48466 | 97 ft | 12 kts | 181° |
| 2026-05-05 15:40 | 51.46728 | -0.48469 | 94 ft | 16 kts | 181° |
| 2026-05-05 15:40 | 51.46659 | -0.48521 | 98 ft | 7 kts | 242° |
| 2026-05-05 15:40 | 51.46653 | -0.48588 | 95 ft | 8 kts | 264° |
| 2026-05-05 15:40 | 51.46644 | -0.48695 | 96 ft | 8 kts | 246° |
| 2026-05-05 15:41 | 51.46607 | -0.48755 | 94 ft | 6 kts | 200° |
| 2026-05-05 15:41 | 51.46554 | -0.48770 | 92 ft | 9 kts | 181° |
| 2026-05-05 15:41 | 51.46506 | -0.48739 | 95 ft | 8 kts | 149° |
| 2026-05-05 15:41 | 51.46486 | -0.48700 | 95 ft | 0 kts | 103° |
| 2026-05-05 15:42 | 51.46475 | -0.48536 | 95 ft | 50 kts | 91° |
| 2026-05-05 15:42 | 51.46484 | -0.47544 | 90 ft | 127 kts | 89° |
| 2026-05-05 15:42 | 51.46471 | -0.45790 | 260 ft | 173 kts | 84° |
| 2026-05-05 15:43 | 51.46524 | -0.43866 | 1137 ft | 175 kts | 89° |
| 2026-05-05 15:43 | 51.46359 | -0.41910 | 2094 ft | 183 kts | 101° |
| 2026-05-05 15:43 | 51.45813 | -0.39963 | 2774 ft | 206 kts | 118° |
| 2026-05-05 15:43 | 51.45029 | -0.37897 | 3278 ft | 229 kts | 115° |
| 2026-05-05 15:44 | 51.44382 | -0.35405 | 3813 ft | 250 kts | 107° |
| 2026-05-05 15:44 | 51.43837 | -0.32726 | 4440 ft | 258 kts | 105° |
| 2026-05-05 15:44 | 51.43295 | -0.29935 | 5084 ft | 262 kts | 105° |
| 2026-05-05 15:44 | 51.42765 | -0.27149 | 5723 ft | 265 kts | 103° |
| 2026-05-05 15:45 | 51.42343 | -0.24243 | 6381 ft | 268 kts | 99° |
| 2026-05-05 15:45 | 51.41969 | -0.21297 | 6995 ft | 272 kts | 100° |
| 2026-05-05 15:45 | 51.41580 | -0.18301 | 7643 ft | 275 kts | 100° |
| 2026-05-05 15:45 | 51.41178 | -0.15277 | 8287 ft | 279 kts | 101° |
| 2026-05-05 15:46 | 51.40768 | -0.12236 | 8938 ft | 282 kts | 101° |
| 2026-05-05 15:46 | 51.40338 | -0.09164 | 9605 ft | 286 kts | 102° |
| 2026-05-05 15:46 | 51.39891 | -0.06008 | 10237 ft | 291 kts | 102° |
| 2026-05-05 15:46 | 51.39435 | -0.02787 | 10856 ft | 309 kts | 102° |
| 2026-05-05 15:47 | 51.38942 | 0.00688 | 11495 ft | 326 kts | 102° |
| 2026-05-05 15:47 | 51.38430 | 0.04293 | 12152 ft | 342 kts | 102° |
| 2026-05-05 15:47 | 51.37890 | 0.08088 | 12805 ft | 355 kts | 102° |
| 2026-05-05 15:47 | 51.37334 | 0.11986 | 13466 ft | 359 kts | 102° |
| 2026-05-05 15:48 | 51.36772 | 0.15860 | 14090 ft | 362 kts | 102° |
| 2026-05-05 15:48 | 51.36197 | 0.19808 | 14695 ft | 365 kts | 102° |
| 2026-05-05 15:48 | 51.35624 | 0.23798 | 15318 ft | 368 kts | 102° |
| 2026-05-05 15:48 | 51.35051 | 0.27775 | 15931 ft | 372 kts | 102° |
| 2026-05-05 15:49 | 51.34462 | 0.31855 | 16571 ft | 376 kts | 102° |
| 2026-05-05 15:49 | 51.33874 | 0.35926 | 17346 ft | 380 kts | 102° |
| 2026-05-05 15:49 | 51.33275 | 0.40054 | 18024 ft | 385 kts | 102° |
| 2026-05-05 15:49 | 51.32664 | 0.44264 | 18668 ft | 389 kts | 102° |
| 2026-05-05 15:50 | 51.32045 | 0.48523 | 19267 ft | 393 kts | 102° |
| 2026-05-05 15:50 | 51.31428 | 0.52769 | 19874 ft | 397 kts | 103° |
| 2026-05-05 15:50 | 51.30792 | 0.57095 | 20495 ft | 400 kts | 103° |
| 2026-05-05 15:50 | 51.30145 | 0.61476 | 21123 ft | 404 kts | 103° |
| 2026-05-05 15:51 | 51.29432 | 0.65810 | 21760 ft | 408 kts | 106° |
| 2026-05-05 15:51 | 51.28627 | 0.70188 | 22409 ft | 412 kts | 107° |
| 2026-05-05 15:51 | 51.27788 | 0.74556 | 23074 ft | 416 kts | 108° |
| 2026-05-05 15:51 | 51.26929 | 0.79009 | 23732 ft | 421 kts | 108° |
| 2026-05-05 15:52 | 51.26068 | 0.83527 | 24304 ft | 425 kts | 108° |
| 2026-05-05 15:52 | 51.25210 | 0.88081 | 24887 ft | 429 kts | 108° |
| 2026-05-05 15:52 | 51.24366 | 0.92605 | 25438 ft | 431 kts | 108° |
| 2026-05-05 15:52 | 51.23509 | 0.97227 | 26066 ft | 434 kts | 108° |
| 2026-05-05 15:53 | 51.22647 | 1.01881 | 26717 ft | 437 kts | 108° |
| 2026-05-05 15:53 | 51.21789 | 1.06498 | 27353 ft | 440 kts | 108° |
| 2026-05-05 15:53 | 51.20909 | 1.11219 | 28032 ft | 443 kts | 108° |
| 2026-05-05 15:53 | 51.20032 | 1.15909 | 28641 ft | 447 kts | 108° |
| 2026-05-05 15:54 | 51.19131 | 1.20699 | 28917 ft | 455 kts | 108° |
| 2026-05-05 15:54 | 51.18197 | 1.25653 | 28937 ft | 471 kts | 109° |
| 2026-05-05 15:54 | 51.17250 | 1.30669 | 28931 ft | 478 kts | 109° |
| 2026-05-05 15:55 | 51.16031 | 1.41100 | 28924 ft | 480 kts | 98° |
| 2026-05-05 15:55 | 51.15455 | 1.51696 | 28918 ft | 481 kts | 96° |
| 2026-05-05 15:56 | 51.14968 | 1.62281 | 28918 ft | 481 kts | 96° |
| 2026-05-05 15:56 | 51.14464 | 1.72949 | 28911 ft | 481 kts | 96° |
| 2026-05-05 15:57 | 51.13936 | 1.83557 | 28908 ft | 481 kts | 97° |
| 2026-05-05 15:57 | 51.13388 | 1.94156 | 28908 ft | 481 kts | 97° |
| 2026-05-05 15:58 | 51.12832 | 2.04749 | 28911 ft | 480 kts | 97° |
| 2026-05-05 15:58 | 51.12268 | 2.15313 | 28907 ft | 480 kts | 97° |
| 2026-05-05 15:59 | 51.11690 | 2.25896 | 28905 ft | 480 kts | 97° |
| 2026-05-05 15:59 | 51.11105 | 2.36545 | 28903 ft | 480 kts | 97° |
| 2026-05-05 16:00 | 51.10515 | 2.47090 | 28900 ft | 480 kts | 97° |
| 2026-05-05 16:00 | 51.09912 | 2.57629 | 28900 ft | 480 kts | 97° |
| 2026-05-05 16:01 | 51.08401 | 2.67904 | 28904 ft | 475 kts | 114° |
| 2026-05-05 16:01 | 51.05565 | 2.77296 | 28903 ft | 473 kts | 119° |
| 2026-05-05 16:02 | 51.02460 | 2.86552 | 28902 ft | 472 kts | 120° |
| 2026-05-05 16:02 | 50.99354 | 2.95708 | 28892 ft | 472 kts | 120° |
| 2026-05-05 16:02 | 50.97816 | 3.00267 | 28765 ft | 472 kts | 120° |
| 2026-05-05 16:03 | 50.96269 | 3.04873 | 28898 ft | 472 kts | 120° |
| 2026-05-05 16:03 | 50.93189 | 3.14048 | 28870 ft | 471 kts | 120° |
| 2026-05-05 16:04 | 50.90109 | 3.23191 | 28886 ft | 471 kts | 120° |
| 2026-05-05 16:04 | 50.87014 | 3.32340 | 28881 ft | 470 kts | 120° |
| 2026-05-05 16:05 | 50.83910 | 3.41483 | 28876 ft | 470 kts | 120° |
| 2026-05-05 16:05 | 50.80815 | 3.50567 | 28879 ft | 469 kts | 120° |
| 2026-05-05 16:06 | 50.77722 | 3.59614 | 28878 ft | 469 kts | 120° |
| 2026-05-05 16:06 | 50.74622 | 3.68650 | 28872 ft | 468 kts | 120° |
| 2026-05-05 16:07 | 50.71493 | 3.77738 | 28872 ft | 469 kts | 120° |
| 2026-05-05 16:07 | 50.68387 | 3.86728 | 28868 ft | 469 kts | 120° |
| 2026-05-05 16:08 | 50.65244 | 3.95788 | 28865 ft | 469 kts | 120° |
| 2026-05-05 16:08 | 50.62116 | 4.04778 | 28866 ft | 469 kts | 120° |
| 2026-05-05 16:09 | 50.59145 | 4.13930 | 28860 ft | 470 kts | 117° |
| 2026-05-05 16:09 | 50.56437 | 4.23281 | 28857 ft | 470 kts | 116° |
| 2026-05-05 16:10 | 50.53698 | 4.32681 | 28855 ft | 469 kts | 117° |
| 2026-05-05 16:10 | 50.50936 | 4.41926 | 28856 ft | 468 kts | 117° |
| 2026-05-05 16:11 | 50.48141 | 4.51153 | 28854 ft | 468 kts | 117° |
| 2026-05-05 16:12 | 50.42540 | 4.69524 | 28856 ft | 466 kts | 118° |
| 2026-05-05 16:13 | 50.35508 | 4.92421 | 28854 ft | 467 kts | 118° |
| 2026-05-05 16:13 | 50.32685 | 5.01553 | 28849 ft | 466 kts | 118° |
| 2026-05-05 16:14 | 50.27029 | 5.19755 | 28833 ft | 466 kts | 118° |
| 2026-05-05 16:15 | 50.21335 | 5.37932 | 28829 ft | 466 kts | 118° |
| 2026-05-05 16:16 | 50.15591 | 5.56141 | 28820 ft | 467 kts | 118° |
| 2026-05-05 16:17 | 50.11252 | 5.69809 | 28826 ft | 468 kts | 119° |
| 2026-05-05 16:18 | 50.06917 | 5.83353 | 28829 ft | 468 kts | 120° |
| 2026-05-05 16:19 | 50.02039 | 5.96475 | 28802 ft | 467 kts | 123° |
| 2026-05-05 16:19 | 49.97044 | 6.09532 | 28811 ft | 468 kts | 123° |
| 2026-05-05 16:20 | 49.90476 | 6.26998 | 28811 ft | 469 kts | 122° |
| 2026-05-05 16:22 | 49.82208 | 6.48823 | 28808 ft | 470 kts | 122° |
| 2026-05-05 16:23 | 49.75577 | 6.66247 | 28806 ft | 471 kts | 123° |
| 2026-05-05 16:23 | 49.71109 | 6.77895 | 28798 ft | 472 kts | 123° |
| 2026-05-05 16:24 | 49.67763 | 6.86586 | 28807 ft | 472 kts | 123° |
| 2026-05-05 16:25 | 49.62723 | 6.99622 | 28815 ft | 472 kts | 123° |
| 2026-05-05 16:25 | 49.57656 | 7.12663 | 28824 ft | 472 kts | 123° |
| 2026-05-05 16:26 | 49.50882 | 7.29999 | 28815 ft | 472 kts | 123° |
| 2026-05-05 16:27 | 49.47499 | 7.38616 | 28815 ft | 471 kts | 123° |
| 2026-05-05 16:27 | 49.44115 | 7.47208 | 28806 ft | 471 kts | 123° |
| 2026-05-05 16:28 | 49.40712 | 7.55818 | 28812 ft | 471 kts | 123° |
| 2026-05-05 16:28 | 49.37306 | 7.64406 | 28810 ft | 472 kts | 123° |
| 2026-05-05 16:29 | 49.33871 | 7.73039 | 28813 ft | 472 kts | 124° |
| 2026-05-05 16:29 | 49.30454 | 7.81602 | 28812 ft | 472 kts | 124° |
| 2026-05-05 16:30 | 49.27007 | 7.90211 | 28821 ft | 473 kts | 124° |
| 2026-05-05 16:30 | 49.23563 | 7.98783 | 28823 ft | 473 kts | 124° |
| 2026-05-05 16:31 | 49.20109 | 8.07348 | 28826 ft | 474 kts | 124° |
| 2026-05-05 16:31 | 49.16644 | 8.15918 | 28822 ft | 474 kts | 124° |
| 2026-05-05 16:32 | 49.13174 | 8.24475 | 28824 ft | 475 kts | 124° |
| 2026-05-05 16:32 | 49.11425 | 8.28778 | 28619 ft | 475 kts | 124° |
| 2026-05-05 16:32 | 49.09676 | 8.33072 | 28160 ft | 475 kts | 124° |
| 2026-05-05 16:33 | 49.07940 | 8.37328 | 27761 ft | 477 kts | 124° |
| 2026-05-05 16:33 | 49.06178 | 8.41638 | 27361 ft | 477 kts | 124° |
| 2026-05-05 16:33 | 49.04436 | 8.45895 | 26971 ft | 475 kts | 124° |
| 2026-05-05 16:33 | 49.02685 | 8.50171 | 26582 ft | 473 kts | 124° |
| 2026-05-05 16:34 | 49.00940 | 8.54422 | 26209 ft | 470 kts | 125° |
| 2026-05-05 16:34 | 48.99131 | 8.58501 | 25840 ft | 466 kts | 130° |
| 2026-05-05 16:34 | 48.97128 | 8.62390 | 25452 ft | 463 kts | 131° |
| 2026-05-05 16:34 | 48.95108 | 8.66156 | 25085 ft | 460 kts | 132° |
| 2026-05-05 16:35 | 48.93003 | 8.69810 | 24715 ft | 456 kts | 137° |
| 2026-05-05 16:35 | 48.90556 | 8.72860 | 24348 ft | 450 kts | 149° |
| 2026-05-05 16:35 | 48.87815 | 8.74989 | 24007 ft | 444 kts | 161° |
| 2026-05-05 16:35 | 48.84818 | 8.76110 | 23652 ft | 439 kts | 174° |
| 2026-05-05 16:36 | 48.81808 | 8.76147 | 23302 ft | 435 kts | 186° |
| 2026-05-05 16:36 | 48.78800 | 8.75572 | 22880 ft | 433 kts | 189° |
| 2026-05-05 16:36 | 48.75826 | 8.74789 | 22467 ft | 431 kts | 191° |
| 2026-05-05 16:36 | 48.72880 | 8.73926 | 22071 ft | 429 kts | 192° |
| 2026-05-05 16:37 | 48.69986 | 8.73065 | 21680 ft | 427 kts | 192° |
| 2026-05-05 16:37 | 48.67059 | 8.72211 | 21290 ft | 425 kts | 192° |
| 2026-05-05 16:37 | 48.64158 | 8.71391 | 20904 ft | 423 kts | 191° |
| 2026-05-05 16:37 | 48.61302 | 8.70609 | 20536 ft | 421 kts | 191° |
| 2026-05-05 16:38 | 48.58419 | 8.69835 | 20152 ft | 419 kts | 191° |
| 2026-05-05 16:38 | 48.55539 | 8.69071 | 19781 ft | 417 kts | 191° |
| 2026-05-05 16:38 | 48.52690 | 8.68319 | 19412 ft | 415 kts | 191° |
| 2026-05-05 16:38 | 48.49884 | 8.67579 | 19040 ft | 413 kts | 191° |
| 2026-05-05 16:39 | 48.47055 | 8.66832 | 18594 ft | 411 kts | 191° |
| 2026-05-05 16:39 | 48.44241 | 8.66090 | 18117 ft | 408 kts | 191° |
| 2026-05-05 16:39 | 48.41476 | 8.65360 | 17583 ft | 405 kts | 191° |
| 2026-05-05 16:39 | 48.38689 | 8.64626 | 17055 ft | 402 kts | 191° |
| 2026-05-05 16:40 | 48.35967 | 8.63899 | 16541 ft | 399 kts | 191° |
| 2026-05-05 16:40 | 48.33237 | 8.63101 | 16029 ft | 396 kts | 192° |
| 2026-05-05 16:40 | 48.30573 | 8.62281 | 15512 ft | 393 kts | 192° |
| 2026-05-05 16:40 | 48.27891 | 8.61445 | 15036 ft | 390 kts | 192° |
| 2026-05-05 16:41 | 48.25230 | 8.60619 | 14543 ft | 388 kts | 192° |
| 2026-05-05 16:41 | 48.22593 | 8.59807 | 13982 ft | 385 kts | 192° |
| 2026-05-05 16:41 | 48.19997 | 8.59013 | 13369 ft | 383 kts | 192° |
| 2026-05-05 16:41 | 48.17381 | 8.58220 | 12945 ft | 380 kts | 192° |
| 2026-05-05 16:42 | 48.14812 | 8.57444 | 12493 ft | 378 kts | 192° |
| 2026-05-05 16:42 | 48.12258 | 8.56685 | 11981 ft | 374 kts | 192° |
| 2026-05-05 16:42 | 48.09703 | 8.55927 | 11476 ft | 371 kts | 192° |
| 2026-05-05 16:42 | 48.07173 | 8.55177 | 10978 ft | 367 kts | 192° |
| 2026-05-05 16:43 | 48.04725 | 8.54449 | 10491 ft | 357 kts | 192° |
| 2026-05-05 16:43 | 48.02327 | 8.53738 | 10062 ft | 346 kts | 191° |
| 2026-05-05 16:43 | 48.00014 | 8.53053 | 9852 ft | 329 kts | 191° |
| 2026-05-05 16:43 | 47.97831 | 8.52408 | 9830 ft | 307 kts | 191° |
| 2026-05-05 16:44 | 47.95820 | 8.51811 | 9829 ft | 288 kts | 191° |
| 2026-05-05 16:44 | 47.93893 | 8.51240 | 9830 ft | 275 kts | 191° |
| 2026-05-05 16:44 | 47.92055 | 8.50689 | 9830 ft | 264 kts | 192° |
| 2026-05-05 16:44 | 47.90278 | 8.50147 | 9566 ft | 257 kts | 191° |
| 2026-05-05 16:45 | 47.88516 | 8.49611 | 8946 ft | 265 kts | 191° |
| 2026-05-05 16:45 | 47.86671 | 8.49052 | 8187 ft | 275 kts | 192° |
| 2026-05-05 16:45 | 47.84776 | 8.48478 | 7438 ft | 284 kts | 192° |
| 2026-05-05 16:45 | 47.82806 | 8.47881 | 6705 ft | 291 kts | 192° |
| 2026-05-05 16:46 | 47.80811 | 8.47279 | 6031 ft | 296 kts | 192° |
| 2026-05-05 16:46 | 47.78791 | 8.46673 | 5509 ft | 294 kts | 192° |
| 2026-05-05 16:46 | 47.76812 | 8.46077 | 5102 ft | 289 kts | 193° |
| 2026-05-05 16:46 | 47.74890 | 8.45498 | 4967 ft | 272 kts | 193° |
| 2026-05-05 16:47 | 47.73094 | 8.44958 | 4962 ft | 254 kts | 193° |
| 2026-05-05 16:47 | 47.71426 | 8.44460 | 4964 ft | 238 kts | 193° |
| 2026-05-05 16:47 | 47.69866 | 8.43925 | 4957 ft | 222 kts | 199° |
| 2026-05-05 16:47 | 47.68514 | 8.42916 | 4748 ft | 214 kts | 219° |
| 2026-05-05 16:48 | 47.67460 | 8.41443 | 4535 ft | 207 kts | 229° |
| 2026-05-05 16:48 | 47.66495 | 8.39882 | 4271 ft | 202 kts | 230° |
| 2026-05-05 16:48 | 47.65553 | 8.38351 | 4016 ft | 199 kts | 230° |
| 2026-05-05 16:48 | 47.64637 | 8.36863 | 3775 ft | 195 kts | 230° |
| 2026-05-05 16:49 | 47.63626 | 8.35545 | 3512 ft | 193 kts | 214° |
| 2026-05-05 16:49 | 47.62334 | 8.35097 | 3319 ft | 192 kts | 178° |
| 2026-05-05 16:49 | 47.61149 | 8.35823 | 3256 ft | 184 kts | 146° |
| 2026-05-05 16:49 | 47.60185 | 8.37057 | 3125 ft | 177 kts | 138° |
| 2026-05-05 16:50 | 47.59340 | 8.38267 | 3146 ft | 160 kts | 138° |
| 2026-05-05 16:50 | 47.58556 | 8.39382 | 3182 ft | 155 kts | 139° |
| 2026-05-05 16:50 | 47.57765 | 8.40487 | 3249 ft | 156 kts | 140° |
| 2026-05-05 16:50 | 47.56973 | 8.41588 | 3365 ft | 155 kts | 140° |
| 2026-05-05 16:51 | 47.56191 | 8.42666 | 3382 ft | 155 kts | 140° |
| 2026-05-05 16:51 | 47.55401 | 8.43757 | 3380 ft | 154 kts | 140° |
| 2026-05-05 16:51 | 47.54619 | 8.44829 | 3362 ft | 155 kts | 140° |
| 2026-05-05 16:51 | 47.53828 | 8.45912 | 3161 ft | 153 kts | 140° |
| 2026-05-05 16:52 | 47.53047 | 8.46991 | 2799 ft | 154 kts | 139° |
| 2026-05-05 16:52 | 47.52266 | 8.48069 | 2439 ft | 156 kts | 140° |
| 2026-05-05 16:52 | 47.51465 | 8.49164 | 2102 ft | 156 kts | 141° |
| 2026-05-05 16:52 | 47.50702 | 8.50215 | 1965 ft | 140 kts | 140° |
| 2026-05-05 16:53 | 47.50003 | 8.51185 | 1829 ft | 135 kts | 140° |
| 2026-05-05 16:53 | 47.49321 | 8.52090 | 1710 ft | 134 kts | 140° |
| 2026-05-05 16:53 | 47.48639 | 8.53046 | 1566 ft | 135 kts | 140° |
| 2026-05-05 16:53 | 47.47944 | 8.53965 | 1428 ft | 131 kts | 141° |
| 2026-05-05 16:54 | 47.47332 | 8.54807 | 1412 ft | 105 kts | 137° |
| 2026-05-05 16:54 | 47.46874 | 8.55436 | 1412 ft | 77 kts | 137° |
| 2026-05-05 16:54 | 47.46598 | 8.55810 | 1411 ft | 30 kts | 138° |
| 2026-05-05 16:54 | 47.46444 | 8.55934 | 1409 ft | 21 kts | 162° |
| 2026-05-05 16:55 | 47.46304 | 8.55984 | 1411 ft | 20 kts | 167° |
| 2026-05-05 16:55 | 47.46281 | 8.55992 | 1409 ft | 0 kts | 167° |
| 2026-05-05 16:56 | 47.46233 | 8.56004 | 1411 ft | 10 kts | 173° |
| 2026-05-05 16:57 | 47.46155 | 8.56000 | 1408 ft | 12 kts | 184° |
| 2026-05-05 16:57 | 47.46064 | 8.55989 | 1407 ft | 14 kts | 185° |
| 2026-05-05 16:57 | 47.45960 | 8.55963 | 1409 ft | 15 kts | 198° |
| 2026-05-05 16:57 | 47.45851 | 8.55908 | 1410 ft | 11 kts | 200° |
| 2026-05-05 16:58 | 47.45845 | 8.55905 | 1409 ft | 0 kts | 200° |
| 2026-05-05 16:59 | 47.45816 | 8.55891 | 1411 ft | 14 kts | 194° |
| 2026-05-05 16:59 | 47.45702 | 8.55866 | 1409 ft | 18 kts | 187° |
| 2026-05-05 16:59 | 47.45586 | 8.55846 | 1408 ft | 13 kts | 186° |
| 2026-05-05 17:00 | 47.45510 | 8.55861 | 1413 ft | 5 kts | 138° |
| 2026-05-05 17:00 | 47.45503 | 8.55899 | 1411 ft | 5 kts | 103° |
| 2026-05-05 17:00 | 47.45491 | 8.55942 | 1404 ft | 3 kts | 137° |
| 2026-05-05 17:00 | 47.45478 | 8.55947 | 1413 ft | 2 kts | 163° |
| 2026-05-05 17:01 | 47.45452 | 8.55951 | 1410 ft | 4 kts | 185° |
| 2026-05-05 17:01 | 47.45427 | 8.55948 | 1406 ft | 0 kts | 184° |
| 2026-05-05 17:01 | 47.45425 | 8.55948 | 1406 ft | 0 kts | 184° |